Time;durP1;ratioP1;P1;durP2;ratioP2;P2;SDS_P1;SDS_P2;PMS_P1;PMS_P2;Temp;Humidity;BMP_temperature;BMP_pressure;BME280_temperature;BME280_humidity;BME280_pressure;Samples;Min_cycle;Max_cycle;Signal;HPM_P1;HPM_P2
2022/12/24 00:01:05;;;;;;;37.80;9.10;;;;;;;9.20;100.00;100591.66;5010842;28;20022;-76
2022/12/24 00:03:32;;;;;;;43.70;10.18;;;;;;;9.22;100.00;100591.56;5013072;28;20034;-76
2022/12/24 00:05:57;;;;;;;42.88;10.20;;;;;;;9.20;100.00;100586.41;5011095;28;20022;-76
2022/12/24 00:08:23;;;;;;;45.42;9.63;;;;;;;9.21;100.00;100588.13;5012323;28;20037;-76
2022/12/24 00:10:51;;;;;;;40.40;9.23;;;;;;;9.16;100.00;100595.44;5003086;28;20025;-76
2022/12/24 00:13:20;;;;;;;41.88;9.25;;;;;;;9.18;100.00;100592.72;5011591;28;20045;-76
2022/12/24 00:15:45;;;;;;;41.67;9.73;;;;;;;9.20;100.00;100589.03;5011385;28;20048;-76
2022/12/24 00:18:10;;;;;;;49.17;9.98;;;;;;;9.20;100.00;100591.66;5011240;28;20026;-76
2022/12/24 00:20:36;;;;;;;42.97;9.25;;;;;;;9.17;100.00;100602.38;5011890;28;20654;-76
2022/12/24 00:23:04;;;;;;;45.40;10.00;;;;;;;9.14;100.00;100602.59;5011940;28;20654;-76
2022/12/24 00:25:39;;;;;;;51.90;10.60;;;;;;;9.16;100.00;100600.69;5011310;28;20033;-76
2022/12/24 00:28:07;;;;;;;42.35;9.60;;;;;;;9.18;100.00;100613.72;5010272;28;20025;-78
2022/12/24 00:30:33;;;;;;;48.85;9.95;;;;;;;9.17;100.00;100605.00;4994536;28;20027;-76
2022/12/24 00:32:58;;;;;;;42.33;9.05;;;;;;;9.18;100.00;100614.56;5007131;28;20112;-76
2022/12/24 00:35:24;;;;;;;45.22;9.07;;;;;;;9.17;100.00;100606.78;5012574;28;20105;-76
2022/12/24 00:37:53;;;;;;;45.45;10.00;;;;;;;9.16;100.00;100605.94;5011426;28;20108;-76
2022/12/24 00:40:21;;;;;;;40.63;9.27;;;;;;;9.20;100.00;100628.41;5011451;28;20103;-76
2022/12/24 00:42:47;;;;;;;39.03;9.18;;;;;;;9.20;100.00;100628.41;5007809;28;20026;-76
2022/12/24 00:45:12;;;;;;;48.65;9.18;;;;;;;9.18;100.00;100627.69;5006342;28;20073;-76
2022/12/24 00:47:41;;;;;;;45.33;9.23;;;;;;;9.17;100.00;100633.88;4998170;28;20355;-76
2022/12/24 00:50:07;;;;;;;37.50;10.27;;;;;;;9.18;100.00;100643.44;4996690;28;20022;-76
2022/12/24 00:52:32;;;;;;;44.15;9.20;;;;;;;9.18;100.00;100640.81;5008252;28;20109;-76
2022/12/24 00:54:58;;;;;;;41.75;9.55;;;;;;;9.14;100.00;100649.84;4992776;28;20034;-76
2022/12/24 00:57:23;;;;;;;44.33;9.25;;;;;;;9.14;100.00;100649.84;4993061;28;20033;-76
2022/12/24 00:59:48;;;;;;;41.15;9.60;;;;;;;9.12;100.00;100657.00;4993676;28;20045;-78
2022/12/24 01:02:14;;;;;;;37.00;8.48;;;;;;;9.14;100.00;100646.38;5010829;28;20021;-76
2022/12/24 01:07:23;;;;;;;36.33;9.13;;;;;;;9.13;100.00;100652.56;5011199;28;20067;-76
2022/12/24 01:09:49;;;;;;;34.55;8.85;;;;;;;9.13;100.00;100661.28;5009587;28;20467;-76
2022/12/24 01:12:14;;;;;;;43.10;9.05;;;;;;;9.11;100.00;100661.41;5010690;28;20022;-76
2022/12/24 01:14:40;;;;;;;43.88;9.60;;;;;;;9.08;100.00;100661.63;5010807;28;20030;-76
2022/12/24 01:17:06;;;;;;;42.15;10.07;;;;;;;9.05;100.00;100661.00;5009170;28;20065;-76
2022/12/24 01:19:32;;;;;;;39.08;9.45;;;;;;;9.03;100.00;100662.91;5006315;28;20049;-76
2022/12/24 01:21:58;;;;;;;36.58;9.48;;;;;;;8.99;100.00;100670.16;5009689;28;20671;-76
2022/12/24 01:24:23;;;;;;;42.35;9.73;;;;;;;8.98;100.00;100678.13;5009300;28;20053;-76
2022/12/24 01:26:51;;;;;;;43.15;10.60;;;;;;;8.96;100.00;100678.25;5009715;28;20030;-76
2022/12/24 01:29:16;;;;;;;47.50;10.27;;;;;;;8.92;100.00;100686.44;5011964;28;20029;-76
2022/12/24 01:31:42;;;;;;;37.03;9.82;;;;;;;8.93;100.00;100682.88;5003670;28;20144;-76
2022/12/24 01:34:08;;;;;;;41.38;10.45;;;;;;;8.88;100.00;100679.72;5011647;28;20068;-77
2022/12/24 01:36:36;;;;;;;40.47;11.27;;;;;;;8.85;100.00;100685.19;5018898;28;20132;-77
2022/12/24 01:39:01;;;;;;;40.42;10.35;;;;;;;8.79;100.00;100687.25;5030298;28;20071;-77
2022/12/24 01:44:22;;;;;;;44.78;9.90;;;;;;;8.76;100.00;100697.97;5029157;28;20083;-80
2022/12/24 01:46:52;;;;;;;45.45;9.25;;;;;;;8.71;100.00;100700.06;5010198;28;20394;-77
2022/12/24 01:49:18;;;;;;;37.70;10.23;;;;;;;8.73;100.00;100706.03;5019226;28;20024;-77
2022/12/24 01:52:06;;;;;;;44.75;9.82;;;;;;;8.74;100.00;100704.25;5002768;28;20042;-80
2022/12/24 01:54:41;;;;;;;40.50;9.57;;;;;;;8.69;100.00;100709.81;5030347;28;20025;-80
2022/12/24 01:57:10;;;;;;;45.53;10.73;;;;;;;8.71;100.00;100701.84;5031423;28;20088;-80
2022/12/24 01:59:37;;;;;;;42.67;9.45;;;;;;;8.69;100.00;100704.59;5012261;28;20036;-80
2022/12/24 02:02:06;;;;;;;41.70;9.60;;;;;;;8.68;100.00;100702.91;5028696;28;20378;-80
2022/12/24 02:04:57;;;;;;;44.42;10.20;;;;;;;8.70;100.00;100724.63;5030816;28;20091;-80
2022/12/24 02:07:23;;;;;;;42.72;9.93;;;;;;;8.68;100.00;100720.44;5029316;28;20029;-77
2022/12/24 02:09:55;;;;;;;45.10;10.15;;;;;;;8.71;100.00;100721.06;5022204;28;20030;-77
2022/12/24 02:12:21;;;;;;;46.10;10.33;;;;;;;8.72;100.00;100727.97;5010381;28;20067;-77
2022/12/24 02:14:47;;;;;;;47.75;10.55;;;;;;;8.74;100.00;100728.72;5030369;28;20378;-75
2022/12/24 02:17:50;;;;;;;48.70;10.45;;;;;;;8.81;100.00;100725.69;5031357;28;20359;-75
2022/12/24 02:20:53;;;;;;;49.30;10.75;;;;;;;8.84;100.00;100730.72;5002281;28;20044;-75
2022/12/24 02:23:48;;;;;;;52.70;12.50;;;;;;;8.85;100.00;100743.75;5010773;28;20099;-78
2022/12/24 02:26:52;;;;;;;45.58;10.70;;;;;;;8.87;100.00;100736.59;5020170;28;20021;-75
2022/12/24 02:29:54;;;;;;;56.55;11.55;;;;;;;8.87;100.00;100733.97;5009740;28;20469;-75
2022/12/24 02:32:31;;;;;;;49.80;10.23;;;;;;;8.89;100.00;100739.97;4992039;28;20081;-76
2022/12/24 02:35:35;;;;;;;49.85;9.40;;;;;;;8.94;100.00;100752.75;5027417;28;20033;-75
2022/12/24 02:38:07;;;;;;;45.53;9.15;;;;;;;8.92;100.00;100745.00;5030115;28;20382;-75
2022/12/24 02:40:41;;;;;;;44.72;9.63;;;;;;;8.95;100.00;100743.94;5028947;28;20014;-75
2022/12/24 02:43:15;;;;;;;50.67;10.73;;;;;;;8.96;100.00;100746.47;5010230;28;20324;-75
2022/12/24 02:45:45;;;;;;;48.55;10.10;;;;;;;8.97;100.00;100752.53;5028717;28;20563;-76
2022/12/24 02:48:13;;;;;;;48.60;9.30;;;;;;;8.98;100.00;100749.81;5011207;28;20063;-76
2022/12/24 02:50:52;;;;;;;45.05;9.43;;;;;;;8.97;100.00;100742.88;5011604;28;20103;-76
2022/12/24 02:53:20;;;;;;;46.28;9.48;;;;;;;8.97;100.00;100753.38;5011375;28;20026;-76
2022/12/24 02:56:05;;;;;;;43.30;9.35;;;;;;;8.99;100.00;100755.91;5028797;28;20036;-75
2022/12/24 02:59:08;;;;;;;43.88;9.63;;;;;;;9.00;100.00;100747.09;5010423;28;20028;-76
2022/12/24 03:01:36;;;;;;;49.30;9.25;;;;;;;8.98;100.00;100743.72;5017997;28;20105;-76
2022/12/24 03:04:15;;;;;;;44.38;9.02;;;;;;;8.99;100.00;100755.91;5014808;28;20033;-75
2022/12/24 03:06:54;;;;;;;45.00;9.65;;;;;;;9.00;100.00;100754.97;5028066;28;20029;-75
2022/12/24 03:09:40;;;;;;;46.08;9.43;;;;;;;9.02;100.00;100760.94;5028108;28;20095;-80
2022/12/24 03:12:11;;;;;;;50.90;10.18;;;;;;;9.05;100.00;100760.72;5013476;28;20112;-78
2022/12/24 03:14:39;;;;;;;45.80;8.98;;;;;;;9.08;100.00;100761.34;5029292;28;20028;-78
2022/12/24 03:17:06;;;;;;;39.65;8.95;;;;;;;9.07;100.00;100769.34;5029230;28;20536;-76
2022/12/24 03:19:39;;;;;;;44.00;9.02;;;;;;;9.10;100.00;100758.63;5029341;28;20437;-76
2022/12/24 03:22:08;;;;;;;41.17;9.68;;;;;;;9.12;100.00;100761.97;5022442;28;20021;-76
2022/12/24 03:24:34;;;;;;;44.75;9.48;;;;;;;9.15;100.00;100761.75;5010264;28;20456;-75
2022/12/24 03:27:01;;;;;;;40.33;9.18;;;;;;;9.15;100.00;100767.00;5029445;28;20108;-75
2022/12/24 03:29:26;;;;;;;43.22;9.48;;;;;;;9.16;100.00;100763.44;5011828;28;20052;-76
2022/12/24 03:31:59;;;;;;;43.05;9.52;;;;;;;9.19;100.00;100765.84;5025715;28;20042;-76
2022/12/24 03:34:25;;;;;;;37.65;8.95;;;;;;;9.22;100.00;100762.19;5029273;28;20041;-76
2022/12/24 03:36:51;;;;;;;40.22;9.43;;;;;;;9.20;100.00;100770.16;5027671;28;20033;-76
2022/12/24 03:39:16;;;;;;;38.95;8.95;;;;;;;9.25;100.00;100775.13;5012384;28;20080;-76
2022/12/24 03:41:42;;;;;;;39.72;8.70;;;;;;;9.25;100.00;100778.56;5028757;28;20551;-76
2022/12/24 03:44:07;;;;;;;38.00;9.30;;;;;;;9.28;100.00;100778.34;5027171;28;20034;-76
2022/12/24 03:46:33;;;;;;;35.10;8.90;;;;;;;9.27;100.00;100781.94;5028389;28;20034;-76
2022/12/24 03:48:58;;;;;;;43.10;10.02;;;;;;;9.28;100.00;100794.13;5029291;28;20022;-76
2022/12/24 03:51:25;;;;;;;33.58;8.98;;;;;;;9.30;100.00;100791.38;5027423;28;20037;-76
2022/12/24 03:53:52;;;;;;;33.40;8.90;;;;;;;9.31;100.00;100778.16;5028187;28;20030;-76
2022/12/24 03:56:26;;;;;;;32.78;8.18;;;;;;;9.30;100.00;100786.97;5026994;28;20030;-76
2022/12/24 03:58:52;;;;;;;38.80;8.93;;;;;;;9.29;100.00;100785.28;5027510;28;20075;-76
2022/12/24 04:01:21;;;;;;;41.88;9.73;;;;;;;9.30;100.00;100784.34;5028301;28;20030;-76
2022/12/24 04:03:46;;;;;;;41.83;9.02;;;;;;;9.29;100.00;100790.53;5027773;28;20091;-76
2022/12/24 04:06:14;;;;;;;38.45;8.93;;;;;;;9.29;100.00;100793.16;5027240;28;20029;-76
2022/12/24 04:08:40;;;;;;;33.28;8.23;;;;;;;9.27;100.00;100795.06;5028114;28;20415;-76
2022/12/24 04:11:12;;;;;;;42.20;9.52;;;;;;;9.25;100.00;100791.72;5028416;28;20026;-76
2022/12/24 04:13:38;;;;;;;40.03;8.30;;;;;;;9.28;100.00;100798.53;5018932;28;20213;-76
2022/12/24 04:16:06;;;;;;;38.78;9.35;;;;;;;9.28;100.00;100799.38;5026094;28;20091;-75
2022/12/24 04:18:32;;;;;;;38.38;8.93;;;;;;;9.26;100.00;100801.25;5010978;28;20033;-75
2022/12/24 04:20:57;;;;;;;35.85;8.60;;;;;;;9.29;100.00;100805.47;5028049;28;20413;-76
2022/12/24 04:23:26;;;;;;;36.40;8.25;;;;;;;9.26;100.00;100803.88;5028919;28;20550;-76
2022/12/24 04:25:51;;;;;;;33.55;8.00;;;;;;;9.26;100.00;100811.75;5028572;28;20026;-76
2022/12/24 04:28:17;;;;;;;38.80;9.15;;;;;;;9.27;100.00;100813.44;5028439;28;20540;-76
2022/12/24 04:30:43;;;;;;;32.22;8.02;;;;;;;9.27;100.00;100812.59;5014946;28;20022;-76
2022/12/24 04:33:09;;;;;;;38.20;9.98;;;;;;;9.29;100.00;100816.78;5008589;28;20057;-76
2022/12/24 04:35:40;;;;;;;37.05;8.75;;;;;;;9.32;100.00;100819.22;5026303;28;20033;-75
2022/12/24 04:38:05;;;;;;;29.92;8.82;;;;;;;9.28;100.00;100815.13;5010947;28;20466;-75
2022/12/24 04:40:31;;;;;;;37.85;9.27;;;;;;;9.25;100.00;100820.59;5026370;28;20078;-76
2022/12/24 04:42:56;;;;;;;33.10;8.68;;;;;;;9.24;100.00;100818.91;5026674;28;20033;-76
2022/12/24 04:45:21;;;;;;;39.90;9.60;;;;;;;9.23;100.00;100819.84;5028480;28;20040;-76
2022/12/24 04:47:47;;;;;;;38.92;9.55;;;;;;;9.19;100.00;100813.09;5031018;28;20037;-76
2022/12/24 04:50:12;;;;;;;39.20;9.27;;;;;;;9.19;100.00;100820.97;5032058;28;20482;-75
2022/12/24 04:52:38;;;;;;;44.42;9.60;;;;;;;9.16;100.00;100815.94;5031804;28;20469;-75
2022/12/24 04:55:12;;;;;;;35.65;8.30;;;;;;;9.13;100.00;100821.41;5031374;28;20030;-75
2022/12/24 04:57:38;;;;;;;38.38;8.30;;;;;;;9.16;100.00;100828.22;5011273;28;20489;-75
2022/12/24 05:00:05;;;;;;;39.95;8.05;;;;;;;9.14;100.00;100824.88;5031429;28;20041;-75
2022/12/24 05:02:30;;;;;;;45.67;8.88;;;;;;;9.14;100.00;100828.31;5029411;28;20028;-75
2022/12/24 05:04:59;;;;;;;34.33;7.85;;;;;;;9.13;100.00;100834.53;5032280;28;20029;-75
2022/12/24 05:07:24;;;;;;;42.28;8.40;;;;;;;9.17;100.00;100830.75;5032021;28;20036;-76
2022/12/24 05:09:49;;;;;;;35.83;7.60;;;;;;;9.16;100.00;100836.94;5030620;28;20033;-75
2022/12/24 05:12:15;;;;;;;35.60;8.05;;;;;;;9.18;100.00;100844.72;5031252;28;20421;-76
2022/12/24 05:14:40;;;;;;;36.65;8.25;;;;;;;9.17;100.00;100838.63;5030842;28;20065;-75
2022/12/24 05:17:06;;;;;;;35.00;7.82;;;;;;;9.16;100.00;100839.56;5028429;28;20075;-75
2022/12/24 05:19:32;;;;;;;41.45;8.18;;;;;;;9.17;100.00;100836.00;5028888;28;20036;-76
2022/12/24 05:27:42;;;;;;;40.67;8.25;;;;;;;9.14;100.00;100833.59;5026356;28;20038;-75
2022/12/24 05:30:08;;;;;;;35.92;8.13;;;;;;;9.12;100.00;100835.47;5026297;28;20053;-76
2022/12/24 05:32:33;;;;;;;40.03;8.15;;;;;;;9.09;100.00;100833.91;5019747;28;20053;-76
2022/12/24 05:34:59;;;;;;;40.03;8.07;;;;;;;9.09;100.00;100830.44;5031498;28;20458;-76
2022/12/24 05:37:24;;;;;;;33.92;7.50;;;;;;;9.09;100.00;100835.69;5028895;28;20021;-76
2022/12/24 05:39:50;;;;;;;39.45;7.93;;;;;;;9.10;100.00;100839.97;5021882;28;20060;-75
2022/12/24 05:42:15;;;;;;;35.75;8.05;;;;;;;9.09;100.00;100846.19;5031297;28;20480;-76
2022/12/24 05:44:40;;;;;;;40.00;7.57;;;;;;;9.06;100.00;100841.97;5030363;28;20025;-78
2022/12/24 05:47:09;;;;;;;40.67;8.52;;;;;;;9.05;100.00;100852.59;5013672;28;20028;-76
2022/12/24 05:49:36;;;;;;;42.67;8.35;;;;;;;9.03;100.00;100862.34;5031045;28;20489;-76
2022/12/24 05:52:04;;;;;;;36.70;8.50;;;;;;;9.00;100.00;100870.44;5031175;28;20028;-75
2022/12/24 05:54:30;;;;;;;41.47;8.82;;;;;;;9.02;100.00;100876.41;5031226;28;20070;-76
2022/12/24 05:56:55;;;;;;;31.40;8.02;;;;;;;9.03;100.00;100875.47;5020528;28;20545;-76
2022/12/24 05:59:24;;;;;;;42.47;9.05;;;;;;;9.02;100.00;100877.25;5010690;28;20029;-78
2022/12/24 06:01:49;;;;;;;42.92;9.32;;;;;;;9.00;100.00;100865.19;5023575;28;20500;-76
2022/12/24 06:04:32;;;;;;;38.35;8.80;;;;;;;9.01;100.00;100883.44;5030822;28;20049;-75
2022/12/24 06:06:58;;;;;;;38.00;8.82;;;;;;;9.02;100.00;100886.91;5012405;28;20033;-76
2022/12/24 06:09:23;;;;;;;35.15;8.25;;;;;;;9.03;100.00;100878.94;5028788;28;20385;-76
2022/12/24 06:11:49;;;;;;;41.40;8.85;;;;;;;9.04;100.00;100875.38;5029933;28;20032;-78
2022/12/24 06:14:14;;;;;;;39.08;9.10;;;;;;;9.03;100.00;100878.94;5026436;28;20025;-76
2022/12/24 06:16:40;;;;;;;39.90;9.68;;;;;;;9.02;100.00;100876.41;5018742;28;20478;-76
2022/12/24 06:19:06;;;;;;;41.50;8.95;;;;;;;9.01;100.00;100883.44;5028631;28;20481;-76
2022/12/24 06:21:31;;;;;;;39.35;9.10;;;;;;;8.98;100.00;100888.91;5030160;28;20030;-76
2022/12/24 06:23:56;;;;;;;35.22;8.80;;;;;;;8.97;100.00;100889.84;5030593;28;20449;-76
2022/12/24 06:26:22;;;;;;;34.13;9.10;;;;;;;8.97;100.00;100886.38;5028221;28;20033;-75
2022/12/24 06:28:49;;;;;;;41.20;9.55;;;;;;;8.92;100.00;100891.94;5030454;28;20068;-76
2022/12/24 06:31:17;;;;;;;38.45;9.40;;;;;;;8.89;100.00;100897.38;5023264;28;20040;-75
2022/12/24 06:33:43;;;;;;;39.53;9.35;;;;;;;8.88;100.00;100895.72;5026304;28;20054;-76
2022/12/24 06:36:13;;;;;;;40.47;9.73;;;;;;;8.83;100.00;100907.44;5027061;28;20047;-75
2022/12/24 06:38:38;;;;;;;35.65;9.43;;;;;;;8.82;100.00;100905.78;5011138;28;20344;-75
2022/12/24 06:41:06;;;;;;;39.90;9.10;;;;;;;8.79;100.00;100907.63;5028540;28;20558;-75
2022/12/24 06:43:33;;;;;;;42.28;10.23;;;;;;;8.77;100.00;100921.78;5028997;28;20496;-75
2022/12/24 06:46:00;;;;;;;39.65;9.05;;;;;;;8.71;100.00;100912.53;5030793;28;20028;-76
2022/12/24 06:48:26;;;;;;;45.47;10.38;;;;;;;8.71;100.00;100909.06;5025789;28;20441;-76
2022/12/24 06:50:51;;;;;;;42.42;9.68;;;;;;;8.71;100.00;100903.81;5029978;28;20035;-76
2022/12/24 06:53:22;;;;;;;43.83;9.98;;;;;;;8.72;100.00;100913.38;5030714;28;20029;-76
2022/12/24 06:56:14;;;;;;;42.45;10.05;;;;;;;8.76;100.00;100927.97;5030243;28;20432;-76
2022/12/24 06:58:40;;;;;;;44.53;10.55;;;;;;;8.77;100.00;100922.63;5011361;28;20513;-76
2022/12/24 07:01:24;;;;;;;43.38;10.50;;;;;;;8.78;100.00;100928.72;5007648;28;20040;-76
2022/12/24 07:03:49;;;;;;;39.05;10.05;;;;;;;8.72;100.00;100927.31;4993406;28;20022;-76
2022/12/24 07:06:26;;;;;;;38.60;9.57;;;;;;;8.72;100.00;100929.13;5014646;28;20030;-76
2022/12/24 07:08:53;;;;;;;45.00;11.15;;;;;;;8.67;100.00;100929.41;5010968;28;20128;-76
2022/12/24 07:11:23;;;;;;;35.85;9.57;;;;;;;8.63;100.00;100925.31;5029604;28;20022;-76
2022/12/24 07:13:48;;;;;;;55.13;11.00;;;;;;;8.60;100.00;100941.25;5012340;28;20115;-76
2022/12/24 07:16:14;;;;;;;46.78;10.52;;;;;;;8.58;100.00;100929.16;5024896;28;20775;-76
2022/12/24 07:18:39;;;;;;;47.30;9.32;;;;;;;8.57;100.00;100936.19;5022679;28;20060;-76
2022/12/24 07:21:09;;;;;;;43.97;10.30;;;;;;;8.57;100.00;100932.72;5010876;28;20063;-76
2022/12/24 07:23:35;;;;;;;47.05;11.07;;;;;;;8.56;100.00;100942.38;5009827;28;20079;-76
2022/12/24 07:26:03;;;;;;;42.28;9.50;;;;;;;8.56;100.00;100937.13;5011308;28;20033;-76
2022/12/24 07:28:29;;;;;;;47.78;10.30;;;;;;;8.57;100.00;100944.06;5028988;28;20029;-76
2022/12/24 07:30:59;;;;;;;44.50;10.90;;;;;;;8.56;100.00;100942.38;5028846;28;20017;-76
2022/12/24 07:33:25;;;;;;;49.53;10.18;;;;;;;8.57;100.00;100953.72;5010874;28;20049;-75
2022/12/24 07:36:20;;;;;;;39.72;10.13;;;;;;;8.59;100.00;100967.56;5029009;28;20048;-76
2022/12/24 07:38:46;;;;;;;47.28;10.80;;;;;;;8.55;100.00;100963.47;5028009;28;20446;-75
2022/12/24 07:41:12;;;;;;;42.88;9.40;;;;;;;8.52;100.00;100955.78;5022486;28;20021;-76
2022/12/24 07:43:40;;;;;;;51.13;10.35;;;;;;;8.50;100.00;100961.13;5026844;28;20104;-76
2022/12/24 07:46:06;;;;;;;37.13;8.82;;;;;;;8.51;100.00;100965.44;4992809;28;20526;-76
2022/12/24 07:48:32;;;;;;;42.58;8.82;;;;;;;8.50;100.00;100973.41;5028396;28;20120;-76
2022/12/24 07:50:58;;;;;;;40.88;9.65;;;;;;;8.48;100.00;100978.75;5029077;28;20091;-76
2022/12/24 07:53:27;;;;;;;47.38;9.43;;;;;;;8.46;100.00;100978.00;5011730;28;20022;-76
2022/12/24 07:55:53;;;;;;;41.97;9.77;;;;;;;8.43;100.00;100994.78;5027994;28;20072;-76
2022/12/24 07:58:23;;;;;;;49.38;10.35;;;;;;;8.44;100.00;100985.13;5026248;28;20494;-76
2022/12/24 08:00:59;;;;;;;42.83;9.55;;;;;;;8.49;100.00;100998.78;5010226;28;20026;-76
2022/12/24 08:03:25;;;;;;;40.88;8.52;;;;;;;8.53;100.00;101000.28;5027402;28;20029;-76
2022/12/24 08:05:51;;;;;;;45.70;9.73;;;;;;;8.57;100.00;101001.75;5028949;28;20053;-79
2022/12/24 08:08:23;;;;;;;44.83;8.98;;;;;;;8.58;100.00;101007.84;5028951;28;20486;-78
2022/12/24 08:10:49;;;;;;;51.50;9.40;;;;;;;8.59;100.00;101013.00;5015733;28;20061;-78
2022/12/24 08:13:15;;;;;;;40.30;8.77;;;;;;;8.60;100.00;101017.31;5028597;28;20521;-75
2022/12/24 08:15:44;;;;;;;40.55;8.45;;;;;;;8.59;100.00;101026.09;5028861;28;20432;-76
2022/12/24 08:18:27;;;;;;;43.10;8.82;;;;;;;8.60;100.00;101038.28;5028642;28;20028;-75
2022/12/24 08:20:52;;;;;;;44.03;9.10;;;;;;;8.62;100.00;101033.78;5031958;28;20049;-76
2022/12/24 08:23:21;;;;;;;41.78;9.82;;;;;;;8.61;100.00;101039.97;5032990;28;20030;-76
2022/12/24 08:25:47;;;;;;;47.92;10.30;;;;;;;8.61;100.00;101039.97;5033090;28;20107;-76
2022/12/24 08:28:16;;;;;;;38.80;8.43;;;;;;;8.63;100.00;101053.81;5013314;28;20063;-75
2022/12/24 08:30:43;;;;;;;42.83;9.48;;;;;;;8.67;100.00;101050.06;5032720;28;20053;-75
2022/12/24 08:33:09;;;;;;;38.70;8.90;;;;;;;8.69;100.00;101052.59;5031337;28;20072;-75
2022/12/24 08:36:20;;;;;;;37.88;8.43;;;;;;;8.72;100.00;101047.16;5032612;28;20025;-76
2022/12/24 08:38:21;;;;;;;47.38;10.07;;;;;;;8.74;100.00;101051.38;5004686;28;20112;-76
2022/12/24 08:40:48;;;;;;;41.20;9.98;;;;;;;8.78;100.00;101059.88;5012372;28;20101;-76
2022/12/24 08:43:15;;;;;;;43.38;9.35;;;;;;;8.79;100.00;101051.91;5017868;28;20032;-76
2022/12/24 08:45:52;;;;;;;40.60;9.30;;;;;;;8.82;100.00;101048.28;5017365;28;20041;-76
2022/12/24 08:48:20;;;;;;;47.78;10.38;;;;;;;8.84;100.00;101056.06;4994315;28;20026;-76
2022/12/24 08:50:46;;;;;;;46.58;9.60;;;;;;;8.86;100.00;101057.63;5017748;28;20367;-75
2022/12/24 08:53:12;;;;;;;45.60;9.52;;;;;;;8.88;100.00;101057.53;5031781;28;20059;-75
2022/12/24 08:55:38;;;;;;;43.22;9.57;;;;;;;8.88;100.00;101073.28;5032048;28;20036;-76
2022/12/24 08:58:03;;;;;;;42.50;9.77;;;;;;;8.86;100.00;101069.91;5032065;28;20021;-76
2022/12/24 09:00:29;;;;;;;43.55;9.30;;;;;;;8.85;100.00;101076.09;5031385;28;20469;-75
2022/12/24 09:02:56;;;;;;;48.17;10.40;;;;;;;8.83;100.00;101084.06;5012513;28;20056;-76
2022/12/24 09:05:21;;;;;;;40.33;9.63;;;;;;;8.85;100.00;101069.06;5025227;28;20482;-76
2022/12/24 09:07:46;;;;;;;48.88;10.68;;;;;;;8.86;100.00;101088.28;5013331;28;20034;-76
2022/12/24 09:10:12;;;;;;;42.45;9.77;;;;;;;8.85;100.00;101087.44;5030348;28;20032;-76
2022/12/24 09:12:37;;;;;;;49.10;10.07;;;;;;;8.83;100.00;101091.09;5030737;28;20060;-76
2022/12/24 09:15:07;;;;;;;45.20;10.45;;;;;;;8.83;100.00;101096.34;5018725;28;20044;-76
2022/12/24 09:17:33;;;;;;;45.42;10.27;;;;;;;8.85;100.00;101100.56;5031010;28;20029;-75
2022/12/24 09:19:59;;;;;;;45.33;10.23;;;;;;;8.88;100.00;101110.03;5031122;28;20051;-76
2022/12/24 09:22:24;;;;;;;46.67;10.38;;;;;;;8.89;100.00;101109.94;5028261;28;20025;-76
2022/12/24 09:24:52;;;;;;;38.88;9.25;;;;;;;8.91;100.00;101122.94;5032389;28;20103;-75
2022/12/24 09:27:20;;;;;;;41.55;8.75;;;;;;;8.98;100.00;101126.88;5030288;28;20040;-75
2022/12/24 09:29:46;;;;;;;44.85;9.80;;;;;;;9.04;100.00;101126.47;5029723;28;20022;-75
2022/12/24 09:32:11;;;;;;;38.15;8.50;;;;;;;9.15;100.00;101139.75;5011034;28;20255;-76
2022/12/24 09:34:36;;;;;;;44.88;9.35;;;;;;;9.23;100.00;101131.41;5031679;28;20474;-76
2022/12/24 09:37:05;;;;;;;47.42;10.27;;;;;;;9.25;100.00;101130.38;5031496;28;20025;-77
2022/12/24 09:39:30;;;;;;;41.60;9.25;;;;;;;9.27;100.00;101139.00;5032229;28;20395;-77
2022/12/24 09:42:20;;;;;;;49.42;10.32;;;;;;;9.30;100.00;101132.72;5031320;28;20021;-75
2022/12/24 09:44:57;;;;;;;43.35;10.07;;;;;;;9.34;100.00;101132.41;5021814;28;20448;-76
2022/12/24 09:47:38;;;;;;;50.03;10.25;;;;;;;9.35;100.00;101133.25;5031371;28;20030;-75
2022/12/24 09:50:27;;;;;;;44.35;9.95;;;;;;;9.35;100.00;101147.22;4993859;28;20053;-75
2022/12/24 09:52:53;;;;;;;47.65;10.40;;;;;;;9.36;100.00;101148.06;4988622;28;20446;-75
2022/12/24 09:55:21;;;;;;;49.38;10.93;;;;;;;9.34;100.00;101156.03;5007531;28;20115;-75
2022/12/24 09:57:52;;;;;;;43.22;10.43;;;;;;;9.33;100.00;101154.34;5013575;28;20029;-75
2022/12/24 10:00:25;;;;;;;44.75;10.20;;;;;;;9.33;100.00;101167.50;5031103;28;20418;-76
2022/12/24 10:02:53;;;;;;;48.92;10.88;;;;;;;9.32;100.00;101172.84;5031407;28;20041;-76
2022/12/24 10:05:27;;;;;;;48.83;11.48;;;;;;;9.33;100.00;101175.38;5030026;28;20029;-76
2022/12/24 10:08:09;;;;;;;50.20;10.90;;;;;;;9.33;100.00;101164.88;5030972;28;20043;-76
2022/12/24 10:10:45;;;;;;;48.53;10.53;;;;;;;9.31;100.00;101172.00;5030203;28;20048;-76
2022/12/24 10:13:26;;;;;;;46.80;10.77;;;;;;;9.33;100.00;101169.28;5012530;28;20022;-76
2022/12/24 10:16:00;;;;;;;44.25;9.82;;;;;;;9.35;100.00;101176.09;5030260;28;20402;-76
2022/12/24 10:18:34;;;;;;;45.63;9.70;;;;;;;9.36;100.00;101175.16;5029681;28;20078;-76
2022/12/24 10:21:12;;;;;;;43.60;11.30;;;;;;;9.41;100.00;101154.72;5030701;28;20123;-76
2022/12/24 10:23:46;;;;;;;48.97;10.30;;;;;;;9.43;100.00;101163.31;5010844;28;20046;-76
2022/12/24 10:26:29;;;;;;;45.38;11.00;;;;;;;9.49;100.00;101158.63;5023506;28;20590;-75
2022/12/24 10:28:57;;;;;;;;;;;;;;;9.56;100.00;101155.50;5031060;28;20031;-76
2022/12/24 10:31:25;;;;;;;45.17;10.77;;;;;;;9.57;100.00;101161.59;5030399;28;19916;-76
2022/12/24 10:34:16;;;;;;;46.17;10.32;;;;;;;9.59;100.00;101163.16;5029762;28;20136;-76
2022/12/24 10:36:42;;;;;;;43.55;10.57;;;;;;;9.59;100.00;101162.31;5030246;28;20068;-76
2022/12/24 10:39:25;;;;;;;39.55;9.50;;;;;;;9.59;100.00;101167.59;5029618;28;20057;-76
2022/12/24 10:41:56;;;;;;;43.03;10.45;;;;;;;9.55;100.00;101179.22;5030748;28;20850;-76
2022/12/24 10:44:26;;;;;;;47.13;10.73;;;;;;;9.54;100.00;101173.13;5028010;28;20496;-76
2022/12/24 10:46:53;;;;;;;39.50;10.07;;;;;;;9.55;100.00;101164.31;5027883;28;20041;-76
2022/12/24 10:49:32;;;;;;;39.25;8.98;;;;;;;9.58;100.00;101176.41;5025811;28;20024;-76
2022/12/24 10:52:23;;;;;;;41.55;10.63;;;;;;;9.62;100.00;101164.78;5030728;28;20025;-76
2022/12/24 10:55:13;;;;;;;39.78;9.23;;;;;;;9.67;100.00;101173.22;5024291;28;20046;-77
2022/12/24 10:58:04;;;;;;;42.17;10.30;;;;;;;9.69;100.00;101171.31;5029456;28;20029;-80
2022/12/24 11:00:43;;;;;;;44.00;9.57;;;;;;;9.73;100.00;101173.66;5020605;28;20568;-77
2022/12/24 11:03:12;;;;;;;43.78;9.65;;;;;;;9.81;100.00;101169.66;5010762;28;20026;-80
2022/12/24 11:05:38;;;;;;;39.67;9.75;;;;;;;9.87;100.00;101175.34;5025506;28;20044;-78
2022/12/24 11:08:19;;;;;;;41.17;9.07;;;;;;;9.92;100.00;101186.41;5011199;28;20029;-78
2022/12/24 11:10:58;;;;;;;36.85;9.18;;;;;;;9.92;100.00;101183.78;5012593;28;20033;-76
2022/12/24 11:13:34;;;;;;;42.40;10.27;;;;;;;9.91;100.00;101181.25;5001227;28;20375;-76
2022/12/24 11:16:40;;;;;;;40.13;9.15;;;;;;;9.95;100.00;101180.94;5018844;28;20060;-76
2022/12/24 11:19:17;;;;;;;43.83;10.25;;;;;;;10.00;100.00;101181.47;5029541;28;20460;-75
2022/12/24 11:21:46;;;;;;;40.83;9.65;;;;;;;10.04;100.00;101183.00;5028276;28;20038;-76
2022/12/24 11:24:12;;;;;;;36.17;9.52;;;;;;;10.08;100.00;101182.78;5029004;28;20037;-76
2022/12/24 11:26:39;;;;;;;38.25;9.75;;;;;;;10.14;100.00;101185.00;5029634;28;20035;-75
2022/12/24 11:29:23;;;;;;;42.35;10.07;;;;;;;10.22;100.00;101199.34;5028858;28;20026;-76
2022/12/24 11:31:51;;;;;;;35.50;9.82;;;;;;;10.24;100.00;101189.56;5011328;28;20128;-76
2022/12/24 11:34:30;;;;;;;40.10;9.75;;;;;;;10.28;100.00;101184.94;5011294;28;20076;-75
2022/12/24 11:37:23;;;;;;;38.67;9.63;;;;;;;10.32;100.00;101195.16;5009569;28;20496;-76
2022/12/24 11:40:17;;;;;;;36.80;9.40;;;;;;;10.32;100.00;101183.78;5025819;28;20398;-76